Time;durP1;ratioP1;P1;durP2;ratioP2;P2;SDS_P1;SDS_P2;PMS_P1;PMS_P2;Temp;Humidity;BMP_temperature;BMP_pressure;BME280_temperature;BME280_humidity;BME280_pressure;Samples;Min_cycle;Max_cycle;Signal;HPM_P1;HPM_P2
2022/04/11 00:01:43;;;;;;;9.90;2.20;;;;;;;0.58;90.15;99697.14;103977;1275;1003376;-66
2022/04/11 00:04:31;;;;;;;10.20;2.70;;;;;;;0.58;89.92;99696.25;104964;1275;62135;-66
2022/04/11 00:07:19;;;;;;;9.40;2.20;;;;;;;0.57;89.44;99695.59;104974;1274;73504;-64
2022/04/11 00:10:08;;;;;;;10.70;2.70;;;;;;;0.56;89.69;99699.30;104760;1274;68117;-65
2022/04/11 00:13:07;;;;;;;11.30;1.90;;;;;;;0.56;89.87;99697.21;104190;1274;1003435;-64
2022/04/11 00:15:56;;;;;;;12.30;2.50;;;;;;;0.56;89.88;99700.52;104848;1275;60722;-62
2022/04/11 00:18:44;;;;;;;11.30;2.30;;;;;;;0.57;89.83;99701.03;104864;1275;60540;-63
2022/04/11 00:21:32;;;;;;;12.30;2.50;;;;;;;0.57;89.75;99701.35;103987;1275;1005189;-65
2022/04/11 00:24:20;;;;;;;12.10;2.40;;;;;;;0.56;89.40;99701.77;104738;1274;68692;-64
2022/04/11 00:27:08;;;;;;;11.70;2.30;;;;;;;0.53;89.87;99702.39;104611;1275;73147;-64
2022/04/11 00:29:56;;;;;;;10.60;2.20;;;;;;;0.51;90.17;99710.34;104682;1274;60619;-64
2022/04/11 00:32:44;;;;;;;11.50;2.60;;;;;;;0.49;90.01;99708.51;104685;1274;60469;-65
2022/04/11 00:35:32;;;;;;;10.70;2.30;;;;;;;0.46;90.11;99709.84;104694;1275;75909;-64
2022/04/11 00:38:20;;;;;;;11.10;2.30;;;;;;;0.45;90.26;99708.65;104699;1274;68601;-63
2022/04/11 00:41:10;;;;;;;14.10;2.90;;;;;;;0.45;90.54;99709.70;104690;1274;74503;-63
2022/04/11 00:43:58;;;;;;;13.10;2.10;;;;;;;0.45;90.64;99715.83;104676;1275;60487;-63
2022/04/11 00:46:46;;;;;;;10.00;2.20;;;;;;;0.45;90.51;99720.00;104910;1275;60681;-63
2022/04/11 00:49:35;;;;;;;8.90;1.90;;;;;;;0.44;90.38;99721.77;104685;1274;73581;-63
2022/04/11 00:52:23;;;;;;;14.90;2.60;;;;;;;0.43;90.29;99722.20;104582;1275;67544;-63
2022/04/11 00:55:14;;;;;;;10.60;2.00;;;;;;;0.39;90.18;99724.98;104939;1274;73270;-63
2022/04/11 00:58:05;;;;;;;8.10;2.00;;;;;;;0.36;90.45;99730.35;104478;1275;60653;-63
2022/04/11 01:00:53;;;;;;;9.00;2.00;;;;;;;0.33;90.43;99735.00;104436;1277;61090;-64
2022/04/11 01:03:41;;;;;;;11.80;2.60;;;;;;;0.31;90.52;99736.98;104693;1274;74444;-63
2022/04/11 01:06:29;;;;;;;11.10;2.70;;;;;;;0.30;90.61;99740.70;104708;1274;69803;-65
2022/04/11 01:09:17;;;;;;;11.80;2.40;;;;;;;0.29;90.45;99744.21;104861;1274;74343;-63
2022/04/11 01:12:06;;;;;;;9.90;2.20;;;;;;;0.27;90.28;99743.05;104874;1274;60365;-65
2022/04/11 01:14:54;;;;;;;8.70;2.20;;;;;;;0.27;90.87;99747.08;104550;1274;60590;-65
2022/04/11 01:17:42;;;;;;;12.70;2.20;;;;;;;0.27;90.83;99750.77;104908;1274;73289;-65
2022/04/11 01:20:30;;;;;;;8.40;1.90;;;;;;;0.25;90.94;99747.70;104637;1276;68350;-64
2022/04/11 01:23:17;;;;;;;13.50;2.20;;;;;;;0.24;90.97;99748.95;104715;1274;73502;-64
2022/04/11 01:26:07;;;;;;;11.40;2.40;;;;;;;0.22;90.99;99751.30;103961;1274;1002911;-65
2022/04/11 01:28:57;;;;;;;12.90;2.20;;;;;;;0.19;91.33;99750.74;104956;1274;60470;-64
2022/04/11 01:31:46;;;;;;;11.00;2.60;;;;;;;0.17;91.40;99751.00;104632;1275;74552;-64
2022/04/11 01:34:35;;;;;;;8.20;2.30;;;;;;;0.15;91.24;99757.16;104566;1275;68666;-66
2022/04/11 01:37:26;;;;;;;17.30;2.90;;;;;;;0.13;91.02;99763.15;104873;1275;72357;-62
2022/04/11 01:40:14;;;;;;;12.30;2.40;;;;;;;0.13;90.96;99763.17;104622;1274;60413;-63
2022/04/11 01:43:02;;;;;;;15.10;3.10;;;;;;;0.13;91.01;99765.45;104700;1274;61941;-63
2022/04/11 01:45:51;;;;;;;13.30;2.10;;;;;;;0.13;90.98;99763.87;104794;1276;74217;-64
2022/04/11 01:48:50;;;;;;;8.80;1.80;;;;;;;0.12;91.27;99765.66;104673;1274;67655;-65
2022/04/11 01:51:39;;;;;;;11.00;2.30;;;;;;;0.10;91.19;99775.00;104731;1274;71328;-62
2022/04/11 01:54:27;;;;;;;10.20;2.10;;;;;;;0.07;90.80;99775.30;105054;1274;60577;-65
2022/04/11 01:57:15;;;;;;;11.40;2.30;;;;;;;0.02;90.84;99779.47;104630;1275;60589;-64
2022/04/11 02:00:59;;;;;;;11.70;2.10;;;;;;;-0.02;91.20;99778.75;104011;1274;1003651;-65
2022/04/11 02:03:54;;;;;;;13.20;2.40;;;;;;;-0.07;91.39;99780.19;104981;1275;68657;-65
2022/04/11 02:06:42;;;;;;;11.40;2.50;;;;;;;-0.12;91.48;99782.12;105077;1274;74506;-65
2022/04/11 02:09:33;;;;;;;12.20;2.30;;;;;;;-0.15;91.54;99789.40;106639;1274;60304;-63
2022/04/11 02:12:21;;;;;;;8.70;2.00;;;;;;;-0.17;92.01;99788.40;106080;1274;59472;-63
2022/04/11 02:15:11;;;;;;;9.50;2.70;;;;;;;-0.18;91.97;99790.35;105559;1276;74401;-62
2022/04/11 02:17:59;;;;;;;12.00;2.20;;;;;;;-0.18;92.32;99790.69;105530;1275;69503;-63
2022/04/11 02:20:47;;;;;;;6.50;1.50;;;;;;;-0.19;91.83;99789.50;104878;1275;73467;-63
2022/04/11 02:23:35;;;;;;;8.50;2.10;;;;;;;-0.20;92.01;99790.97;104957;1275;60482;-68
2022/04/11 02:26:23;;;;;;;11.10;2.40;;;;;;;-0.23;92.46;99791.08;104766;1275;60611;-63
2022/04/11 02:29:11;;;;;;;11.70;2.50;;;;;;;-0.27;92.15;99791.76;104682;1274;75610;-64
2022/04/11 02:31:59;;;;;;;13.20;2.60;;;;;;;-0.31;91.99;99795.55;104751;1274;65865;-65
2022/04/11 02:34:47;;;;;;;12.30;2.40;;;;;;;-0.34;92.35;99799.67;104631;1275;73516;-67
2022/04/11 02:37:36;;;;;;;12.40;2.60;;;;;;;-0.37;93.24;99798.36;104788;1275;60368;-62
2022/04/11 02:40:24;;;;;;;9.20;2.60;;;;;;;-0.38;92.76;99794.08;104657;1275;60603;-63
2022/04/11 02:43:41;;;;;;;16.70;2.80;;;;;;;-0.39;93.25;99797.94;104899;1274;72742;-62
2022/04/11 02:46:30;;;;;;;10.60;2.30;;;;;;;-0.40;93.21;99799.17;104672;1274;68460;-62
2022/04/11 02:49:18;;;;;;;8.70;2.00;;;;;;;-0.42;93.04;99799.79;104989;1275;72314;-63
2022/04/11 02:52:15;;;;;;;11.40;2.40;;;;;;;-0.44;93.43;99799.17;104568;1274;60494;-63
2022/04/11 02:55:04;;;;;;;11.40;2.50;;;;;;;-0.47;93.59;99798.78;104686;1274;60593;-66
2022/04/11 02:57:52;;;;;;;12.30;2.10;;;;;;;-0.49;93.95;99799.70;104563;1277;75211;-63
2022/04/11 03:00:40;;;;;;;13.40;2.90;;;;;;;-0.51;94.19;99797.69;104662;1274;68532;-63
2022/04/11 03:03:28;;;;;;;14.10;2.70;;;;;;;-0.52;94.27;99794.37;104902;1276;73656;-64
2022/04/11 03:06:17;;;;;;;13.50;2.40;;;;;;;-0.51;93.91;99796.63;104800;1275;60592;-64
2022/04/11 03:09:08;;;;;;;10.10;2.40;;;;;;;-0.48;94.23;99797.75;104820;1277;62147;-65
2022/04/11 03:11:56;;;;;;;12.30;2.40;;;;;;;-0.47;94.35;99797.68;104628;1277;75516;-63
2022/04/11 03:14:49;;;;;;;9.50;2.20;;;;;;;-0.51;94.51;99786.67;105005;1274;68412;-64
2022/04/11 03:17:38;;;;;;;11.40;2.60;;;;;;;-0.45;94.54;99802.52;104928;1275;73374;-62
2022/04/11 03:20:26;;;;;;;9.40;2.50;;;;;;;-0.45;94.59;99801.47;104637;1276;60602;-63
2022/04/11 03:23:16;;;;;;;16.00;3.00;;;;;;;-0.43;94.55;99803.33;103235;1274;1003222;-63
2022/04/11 03:26:06;;;;;;;14.00;3.20;;;;;;;-0.41;94.58;99804.46;104545;1277;74477;-63
2022/04/11 03:28:54;;;;;;;11.20;3.10;;;;;;;-0.40;94.11;99804.40;104599;1278;68348;-64
2022/04/11 03:31:42;;;;;;;12.80;3.40;;;;;;;-0.37;93.95;99810.09;104597;1276;73618;-65
2022/04/11 03:34:31;;;;;;;11.70;2.80;;;;;;;-0.36;93.83;99810.02;104581;1278;60683;-64
2022/04/11 03:37:19;;;;;;;14.40;3.20;;;;;;;-0.34;93.84;99815.36;104706;1278;60536;-63
2022/04/11 03:40:17;;;;;;;15.80;3.20;;;;;;;-0.31;94.35;99813.16;104406;1278;73777;-64
2022/04/11 03:43:06;;;;;;;9.70;2.40;;;;;;;-0.31;94.04;99812.27;104768;1278;68643;-67
2022/04/11 03:45:54;;;;;;;8.10;2.40;;;;;;;-0.32;94.24;99814.40;103598;1278;1003130;-64
2022/04/11 03:48:42;;;;;;;10.60;2.60;;;;;;;-0.33;94.26;99819.88;104412;1278;60545;-64
2022/04/11 03:51:31;;;;;;;10.20;3.00;;;;;;;-0.36;94.20;99819.09;104793;1278;60740;-67
2022/04/11 03:54:20;;;;;;;10.50;2.70;;;;;;;-0.39;94.50;99817.09;104691;1276;73778;-66
2022/04/11 03:57:09;;;;;;;14.70;4.20;;;;;;;-0.40;94.49;99818.89;104481;1277;68098;-67
2022/04/11 03:59:57;;;;;;;11.60;3.30;;;;;;;-0.41;94.84;99826.06;104507;1274;74053;-66
2022/04/11 04:02:46;;;;;;;11.90;3.60;;;;;;;-0.39;94.94;99827.39;104557;1275;60487;-67
2022/04/11 04:05:45;;;;;;;13.00;3.10;;;;;;;-0.37;94.74;99836.03;104551;1275;60955;-66
2022/04/11 04:08:35;;;;;;;10.00;3.30;;;;;;;-0.36;94.94;99827.98;104578;1274;73645;-63
2022/04/11 04:11:32;;;;;;;12.00;2.90;;;;;;;-0.36;95.05;99831.64;104559;1274;66803;-69
2022/04/11 04:14:47;;;;;;;13.80;2.70;;;;;;;-0.36;94.98;99836.52;105028;1274;71872;-69
2022/04/11 04:17:36;;;;;;;11.60;3.60;;;;;;;-0.34;95.54;99843.08;104578;1274;60444;-66
2022/04/11 04:20:26;;;;;;;14.50;3.40;;;;;;;-0.30;95.56;99840.48;104623;1274;60525;-69
2022/04/11 04:23:16;;;;;;;16.20;3.70;;;;;;;-0.25;95.37;99840.47;104026;1275;1003077;-64
2022/04/11 04:26:08;;;;;;;12.80;3.70;;;;;;;-0.18;95.42;99847.73;104795;1274;67665;-68
2022/04/11 04:28:56;;;;;;;14.50;3.30;;;;;;;-0.10;95.35;99849.54;104829;1275;72073;-65
2022/04/11 04:31:47;;;;;;;11.70;3.20;;;;;;;-0.02;95.62;99853.95;104034;1274;1003116;-65
2022/04/11 04:34:37;;;;;;;13.70;3.70;;;;;;;0.07;95.29;99854.48;104609;1275;60828;-68
2022/04/11 04:37:26;;;;;;;12.50;2.90;;;;;;;0.15;94.93;99857.66;104567;1275;75571;-67
2022/04/11 04:40:14;;;;;;;11.50;3.70;;;;;;;0.22;94.53;99861.41;104198;1274;1003120;-67
2022/04/11 04:43:06;;;;;;;11.60;3.10;;;;;;;0.27;94.34;99862.95;104551;1275;74994;-65
2022/04/11 04:45:54;;;;;;;9.40;3.30;;;;;;;0.30;93.91;99864.93;104650;1274;61240;-66
2022/04/11 04:49:05;;;;;;;14.50;3.30;;;;;;;0.32;93.41;99863.48;105119;1274;60496;-68
2022/04/11 04:51:55;;;;;;;13.70;3.90;;;;;;;0.32;93.45;99863.28;104685;1274;74689;-66
2022/04/11 04:54:43;;;;;;;16.30;3.60;;;;;;;0.31;93.40;99867.68;104781;1275;66416;-68
2022/04/11 04:57:32;;;;;;;15.00;3.30;;;;;;;0.31;93.50;99871.02;104801;1274;71804;-67
2022/04/11 05:00:20;;;;;;;13.90;3.00;;;;;;;0.30;93.54;99873.30;103920;1274;1003073;-67
2022/04/11 05:03:08;;;;;;;12.90;3.50;;;;;;;0.27;93.88;99873.96;104670;1275;60507;-68
2022/04/11 05:05:56;;;;;;;11.50;3.90;;;;;;;0.25;94.00;99879.27;104728;1274;74762;-66
2022/04/11 05:08:45;;;;;;;14.60;4.50;;;;;;;0.29;94.28;99878.27;104603;1275;66867;-66
2022/04/11 05:11:33;;;;;;;15.60;5.00;;;;;;;0.38;94.16;99879.84;104838;1274;73465;-66
2022/04/11 05:14:21;;;;;;;14.00;4.40;;;;;;;0.46;93.84;99888.07;104545;1277;60592;-66
2022/04/11 05:17:09;;;;;;;15.00;4.50;;;;;;;0.56;93.59;99888.39;104605;1275;61926;-65
2022/04/11 05:19:57;;;;;;;15.40;4.70;;;;;;;0.64;93.43;99887.02;104781;1274;75328;-64
2022/04/11 05:22:45;;;;;;;16.80;5.40;;;;;;;0.70;93.27;99881.75;105761;1274;67551;-72
2022/04/11 05:25:35;;;;;;;17.80;5.30;;;;;;;0.84;93.15;99888.17;104756;1274;72086;-66
2022/04/11 05:28:23;;;;;;;16.70;5.10;;;;;;;0.93;92.63;99886.94;104122;1274;1003289;-72
2022/04/11 05:31:20;;;;;;;17.40;4.90;;;;;;;1.01;92.25;99884.82;104701;1274;60590;-68
2022/04/11 05:34:09;;;;;;;17.70;5.00;;;;;;;1.10;91.95;99886.73;104812;1274;73541;-67
2022/04/11 05:36:57;;;;;;;16.00;4.60;;;;;;;1.21;91.46;99889.44;104666;1274;69543;-66
2022/04/11 05:39:46;;;;;;;16.00;4.20;;;;;;;1.33;91.03;99889.79;104741;1274;73115;-69
2022/04/11 05:42:34;;;;;;;14.00;3.40;;;;;;;1.46;90.38;99888.39;104698;1274;60451;-65
2022/04/11 05:45:23;;;;;;;12.50;4.00;;;;;;;1.57;89.81;99892.83;104565;1275;60755;-66
2022/04/11 05:48:11;;;;;;;13.20;3.40;;;;;;;1.78;89.56;99900.13;104608;1274;73558;-67
2022/04/11 05:51:00;;;;;;;16.20;4.10;;;;;;;2.14;88.04;99894.50;104542;1274;67466;-67
2022/04/11 05:53:48;;;;;;;16.90;4.80;;;;;;;2.33;86.46;99896.95;104649;1274;74548;-66
2022/04/11 05:56:36;;;;;;;14.40;4.70;;;;;;;2.55;86.01;99901.55;104821;1274;62075;-65
2022/04/11 05:59:27;;;;;;;14.30;4.40;;;;;;;2.74;84.97;99900.85;104827;1274;60845;-66
2022/04/11 06:02:15;;;;;;;18.80;4.60;;;;;;;2.83;84.34;99902.66;104763;1274;75107;-69
2022/04/11 06:05:04;;;;;;;17.50;4.30;;;;;;;2.98;84.15;99903.05;104873;1274;68138;-67
2022/04/11 06:07:52;;;;;;;16.90;3.40;;;;;;;3.16;82.69;99903.17;104555;1274;73600;-68
2022/04/11 06:10:40;;;;;;;11.90;3.00;;;;;;;3.46;81.69;99905.00;104633;1274;60546;-72
2022/04/11 06:13:29;;;;;;;12.70;2.70;;;;;;;3.80;80.64;99903.62;104786;1274;60742;-66
2022/04/11 06:16:18;;;;;;;10.30;2.70;;;;;;;4.11;78.51;99903.75;104821;1275;75202;-67
2022/04/11 06:19:06;;;;;;;9.50;2.40;;;;;;;4.37;76.88;99898.88;104656;1274;69753;-74
2022/04/11 06:21:54;;;;;;;9.30;2.40;;;;;;;4.75;75.00;99897.80;105391;1274;71246;-67
2022/04/11 06:24:42;;;;;;;10.60;2.10;;;;;;;6.18;70.55;99894.02;104784;1274;61026;-66
2022/04/11 06:27:32;;;;;;;12.90;2.30;;;;;;;8.05;63.73;99887.06;104712;1274;60328;-68
2022/04/11 06:30:20;;;;;;;12.90;2.60;;;;;;;9.23;59.29;99886.01;104529;1275;75608;-68
2022/04/11 06:33:08;;;;;;;11.10;2.90;;;;;;;10.04;55.23;99881.98;104661;1275;68401;-67
2022/04/11 06:35:56;;;;;;;9.30;2.00;;;;;;;11.46;52.42;99882.07;104663;1274;73236;-69
2022/04/11 06:38:45;;;;;;;11.90;2.30;;;;;;;12.19;47.25;99872.16;104516;1275;60479;-68
2022/04/11 06:41:34;;;;;;;9.70;2.20;;;;;;;12.06;46.86;99876.98;104707;1275;62109;-70
2022/04/11 06:44:22;;;;;;;12.90;2.30;;;;;;;11.70;46.04;99884.27;104597;1275;74682;-69
2022/04/11 06:47:17;;;;;;;11.40;2.20;;;;;;;13.23;42.67;99881.39;105012;1274;67996;-68
2022/04/11 06:50:06;;;;;;;11.30;2.20;;;;;;;13.18;41.62;99882.20;104667;1275;74307;-71
2022/04/11 06:52:54;;;;;;;13.10;4.40;;;;;;;13.08;41.94;99888.83;104698;1274;60612;-67
2022/04/11 06:55:44;;;;;;;8.80;2.30;;;;;;;12.58;41.03;99889.02;104876;1274;60558;-67
2022/04/11 06:58:32;;;;;;;11.80;2.80;;;;;;;12.04;40.35;99891.87;104999;1274;74349;-67
2022/04/11 07:01:20;;;;;;;8.80;1.70;;;;;;;12.63;40.71;99891.41;104792;1274;68728;-68
2022/04/11 07:04:10;;;;;;;8.70;2.00;;;;;;;12.66;38.93;99889.20;104625;1274;73335;-69
2022/04/11 07:06:58;;;;;;;10.20;2.10;;;;;;;13.74;37.10;99884.92;104675;1274;60471;-68
2022/04/11 07:09:46;;;;;;;10.50;2.20;;;;;;;15.02;35.98;99884.09;104715;1274;60566;-68
2022/04/11 07:12:41;;;;;;;8.80;2.20;;;;;;;15.56;35.28;99885.80;104611;1274;74651;-69
2022/04/11 07:15:29;;;;;;;10.20;2.20;;;;;;;16.01;33.24;99881.67;104655;1275;68499;-70
2022/04/11 07:18:21;;;;;;;10.20;1.90;;;;;;;16.60;31.93;99879.05;104622;1274;72475;-69
2022/04/11 07:21:09;;;;;;;9.70;1.80;;;;;;;16.72;31.40;99882.88;104741;1274;60491;-67
2022/04/11 07:23:56;;;;;;;6.80;1.60;;;;;;;16.25;30.51;99883.95;104611;1274;60767;-70
2022/04/11 07:26:44;;;;;;;8.40;1.90;;;;;;;16.49;29.96;99888.43;104671;1274;73890;-70
2022/04/11 07:29:32;;;;;;;7.90;1.60;;;;;;;16.71;29.88;99884.02;104794;1275;67287;-69
2022/04/11 07:32:20;;;;;;;8.40;1.90;;;;;;;15.25;31.15;99888.38;104655;1274;72631;-70
2022/04/11 07:35:09;;;;;;;9.10;1.80;;;;;;;14.23;32.93;99893.48;104922;1274;62217;-71
2022/04/11 07:37:57;;;;;;;9.40;1.90;;;;;;;15.22;30.93;99892.63;104478;1276;61130;-69
2022/04/11 07:40:46;;;;;;;9.20;1.80;;;;;;;15.21;30.38;99892.39;104639;1274;75933;-69
2022/04/11 07:43:34;;;;;;;10.50;1.80;;;;;;;15.54;30.02;99897.29;104911;1274;69318;-68
2022/04/11 07:46:22;;;;;;;7.50;1.50;;;;;;;14.47;31.74;99890.67;104671;1274;73258;-69
2022/04/11 07:49:10;;;;;;;8.10;1.90;;;;;;;14.00;33.09;99895.13;104841;1274;60920;-67
2022/04/11 07:51:58;;;;;;;8.10;1.70;;;;;;;14.09;32.52;99892.02;105090;1274;61889;-68
2022/04/11 07:54:46;;;;;;;9.80;1.80;;;;;;;13.22;32.87;99897.33;104617;1274;74808;-68
2022/04/11 07:57:34;;;;;;;7.80;1.70;;;;;;;12.55;33.63;99904.02;104522;1274;68758;-69
2022/04/11 08:00:39;;;;;;;9.50;1.80;;;;;;;13.20;33.02;99905.20;104891;1274;74214;-69
2022/04/11 08:03:27;;;;;;;9.90;2.20;;;;;;;12.57;33.68;99910.28;104692;1274;60579;-67
2022/04/11 08:06:16;;;;;;;7.80;1.40;;;;;;;13.07;33.71;99913.86;104830;1274;60391;-70
2022/04/11 08:09:04;;;;;;;7.70;1.70;;;;;;;12.73;33.68;99914.77;104715;1274;74495;-69
2022/04/11 08:11:52;;;;;;;7.80;1.70;;;;;;;11.97;34.38;99921.66;104836;1274;68508;-66
2022/04/11 08:14:40;;;;;;;7.40;1.60;;;;;;;12.06;34.10;99918.45;104739;1274;73330;-67
2022/04/11 08:17:29;;;;;;;8.70;1.80;;;;;;;12.13;34.45;99915.68;104607;1275;60566;-68
2022/04/11 08:20:17;;;;;;;8.60;1.40;;;;;;;11.77;35.54;99923.21;104790;1274;62401;-66
2022/04/11 08:23:05;;;;;;;9.10;1.70;;;;;;;11.23;36.56;99923.24;104748;1274;74451;-68
2022/04/11 08:25:53;;;;;;;8.00;1.40;;;;;;;10.55;37.16;99927.63;104659;1274;69472;-67
2022/04/11 08:28:42;;;;;;;10.00;2.00;;;;;;;10.13;37.80;99928.23;104625;1274;74585;-67
2022/04/11 08:31:31;;;;;;;10.10;1.80;;;;;;;10.41;38.05;99921.64;104686;1274;60544;-70
2022/04/11 08:34:19;;;;;;;9.40;1.90;;;;;;;11.13;36.61;99922.50;104811;1274;61019;-68
2022/04/11 08:37:07;;;;;;;11.20;2.00;;;;;;;10.80;36.48;99924.07;105952;1274;74151;-68
2022/04/11 08:39:54;;;;;;;8.60;1.60;;;;;;;10.38;36.63;99926.16;106259;1274;66812;-68
2022/04/11 08:42:45;;;;;;;8.40;1.80;;;;;;;10.05;36.94;99929.23;106016;1274;73633;-67
2022/04/11 08:45:32;;;;;;;8.40;1.90;;;;;;;9.82;37.06;99935.23;106102;1274;60463;-68
2022/04/11 08:48:24;;;;;;;8.60;1.80;;;;;;;9.49;38.54;99936.88;105411;1274;61303;-67
2022/04/11 08:51:12;;;;;;;7.60;1.60;;;;;;;9.06;39.47;99939.12;104747;1274;73497;-67
2022/04/11 08:54:05;;;;;;;8.90;1.50;;;;;;;8.73;40.48;99940.27;104737;1274;68797;-69
2022/04/11 08:56:53;;;;;;;8.20;1.70;;;;;;;8.48;41.13;99936.73;104688;1274;73179;-67
2022/04/11 08:59:41;;;;;;;7.30;1.80;;;;;;;9.41;40.09;99934.23;104916;1274;60502;-65
2022/04/11 09:02:35;;;;;;;10.10;2.00;;;;;;;11.66;36.59;99927.09;104938;1274;60469;-69
2022/04/11 09:05:25;;;;;;;8.20;1.70;;;;;;;12.92;33.17;99922.67;104294;1275;388810;-67
2022/04/11 09:08:13;;;;;;;8.60;1.70;;;;;;;12.93;32.39;99925.57;104716;1274;68387;-67
2022/04/11 09:11:03;;;;;;;6.30;1.30;;;;;;;12.68;32.33;99924.06;104672;1274;74407;-67
2022/04/11 09:13:52;;;;;;;9.40;1.80;;;;;;;12.23;32.52;99923.02;104879;1274;60534;-72
2022/04/11 09:16:52;;;;;;;8.40;1.80;;;;;;;11.64;33.51;99929.05;104674;1274;60661;-69
2022/04/11 09:19:40;;;;;;;10.50;3.40;;;;;;;11.17;34.79;99932.60;104498;1274;73435;-68
2022/04/11 09:22:43;;;;;;;7.50;1.90;;;;;;;10.61;35.57;99932.89;105012;1274;68600;-64
2022/04/11 09:25:32;;;;;;;6.20;1.60;;;;;;;10.12;36.95;99933.45;104655;1274;74511;-66
2022/04/11 09:28:20;;;;;;;7.10;1.80;;;;;;;9.78;38.17;99937.88;104500;1274;60592;-67
2022/04/11 09:31:09;;;;;;;10.80;1.80;;;;;;;9.28;39.62;99940.68;104723;1274;61078;-65
2022/04/11 09:33:58;;;;;;;8.90;1.90;;;;;;;8.85;41.17;99945.29;104658;1274;75657;-67
2022/04/11 09:36:51;;;;;;;8.90;1.70;;;;;;;8.55;42.07;99942.80;104653;1274;68798;-66
2022/04/11 09:39:59;;;;;;;8.40;2.00;;;;;;;8.33;42.29;99947.00;104632;1274;74428;-67
2022/04/11 09:42:57;;;;;;;10.00;2.00;;;;;;;8.94;41.45;99946.31;104775;1274;60592;-70
2022/04/11 09:45:49;;;;;;;8.50;1.40;;;;;;;10.72;37.88;99941.38;104809;1274;60450;-70
2022/04/11 09:48:37;;;;;;;8.90;1.80;;;;;;;11.09;35.89;99936.46;104780;1274;74092;-70
2022/04/11 09:51:25;;;;;;;6.80;1.70;;;;;;;10.80;36.06;99945.55;104667;1274;70123;-69
2022/04/11 09:54:27;;;;;;;9.70;2.30;;;;;;;10.23;37.40;99948.27;104705;1274;72323;-68
2022/04/11 09:57:17;;;;;;;7.90;1.70;;;;;;;9.63;38.85;99957.59;104706;1274;60478;-68
2022/04/11 10:00:06;;;;;;;6.90;1.80;;;;;;;9.14;38.72;99958.77;104414;1274;60424;-69
2022/04/11 10:03:03;;;;;;;7.70;1.80;;;;;;;8.69;39.14;99961.43;104778;1274;75700;-69
2022/04/11 10:05:51;;;;;;;9.10;1.90;;;;;;;8.79;39.77;99966.73;104813;1274;68240;-68
2022/04/11 10:08:39;;;;;;;10.00;2.10;;;;;;;10.24;38.00;99962.66;104776;1274;74632;-70
2022/04/11 10:11:27;;;;;;;8.10;1.80;;;;;;;11.41;35.27;99955.30;104715;1274;60598;-69
2022/04/11 10:14:17;;;;;;;8.10;1.90;;;;;;;12.92;31.92;99949.33;104567;1274;61918;-70
2022/04/11 10:17:05;;;;;;;7.60;1.60;;;;;;;14.00;30.28;99953.64;104540;1274;75388;-68
2022/04/11 10:19:53;;;;;;;7.00;1.70;;;;;;;13.53;30.42;99950.85;104729;1274;69010;-72
2022/04/11 10:22:55;;;;;;;6.50;1.70;;;;;;;12.83;31.01;99956.02;104727;1274;73421;-67
2022/04/11 10:25:49;;;;;;;6.80;1.60;;;;;;;12.02;32.91;99967.88;104772;1274;60487;-67
2022/04/11 10:28:45;;;;;;;8.10;1.80;;;;;;;11.37;33.63;99969.52;104843;1274;60385;-69
2022/04/11 10:31:37;;;;;;;7.50;1.80;;;;;;;10.80;34.85;99969.54;104545;1275;74246;-68
2022/04/11 10:35:09;;;;;;;6.90;1.70;;;;;;;10.29;36.30;99974.36;104656;1274;68562;-70
2022/04/11 10:37:57;;;;;;;8.10;1.80;;;;;;;9.76;38.05;99979.45;104650;1274;72502;-67
2022/04/11 10:40:48;;;;;;;6.10;1.50;;;;;;;9.35;38.04;99974.88;104774;1274;60464;-69
2022/04/11 10:44:33;;;;;;;9.90;2.10;;;;;;;8.94;38.93;99975.25;104691;1274;60506;-68
2022/04/11 10:47:31;;;;;;;9.00;3.10;;;;;;;8.56;40.09;99979.71;104998;1274;74439;-67
2022/04/11 10:50:21;;;;;;;8.00;2.30;;;;;;;8.45;40.59;99975.83;104696;1275;68369;-69
2022/04/11 10:53:24;;;;;;;7.00;1.80;;;;;;;8.45;40.39;99979.91;104646;1274;73233;-68
2022/04/11 10:56:13;;;;;;;10.30;2.50;;;;;;;8.71;39.93;99977.41;104785;1274;60601;-68
2022/04/11 10:59:01;;;;;;;7.30;1.50;;;;;;;9.11;38.90;99978.58;101676;1274;1003825;-67
2022/04/11 11:01:56;;;;;;;7.50;1.60;;;;;;;9.21;38.11;99981.57;104622;1274;74534;-66
2022/04/11 11:04:44;;;;;;;6.70;1.40;;;;;;;9.37;37.83;99980.95;104635;1274;67429;-65
2022/04/11 11:07:32;;;;;;;8.30;1.70;;;;;;;9.50;37.82;99979.77;104751;1274;74438;-70
2022/04/11 11:10:58;;;;;;;7.50;1.70;;;;;;;9.62;37.21;99981.55;104638;1274;60547;-70
2022/04/11 11:13:48;;;;;;;8.20;1.70;;;;;;;9.79;37.25;99984.70;104479;1274;61912;-67
2022/04/11 11:16:56;;;;;;;8.20;1.60;;;;;;;9.83;37.00;99980.90;104642;1275;75777;-68
2022/04/11 11:20:08;;;;;;;8.90;1.80;;;;;;;9.88;36.41;99981.42;105117;1274;69170;-69
2022/04/11 11:23:31;;;;;;;6.60;1.50;;;;;;;9.80;35.72;99984.81;104899;1274;71943;-67
2022/04/11 11:26:19;;;;;;;6.70;1.60;;;;;;;9.69;35.62;99988.33;104615;1274;60457;-66
2022/04/11 11:29:49;;;;;;;7.30;1.60;;;;;;;9.53;36.30;99990.02;104606;1274;60480;-66
2022/04/11 11:32:42;;;;;;;7.50;1.60;;;;;;;9.47;37.09;99990.98;104785;1274;73366;-66
2022/04/11 11:35:30;;;;;;;7.80;1.90;;;;;;;9.39;37.15;99989.99;104517;1274;68072;-66
2022/04/11 11:38:27;;;;;;;7.00;1.70;;;;;;;9.48;36.63;99989.53;104644;1274;72093;-67
2022/04/11 11:41:14;;;;;;;5.90;1.40;;;;;;;9.48;34.95;99986.17;104659;1274;61017;-71
2022/04/11 11:44:03;;;;;;;8.50;1.50;;;;;;;9.52;35.45;99985.51;104630;1274;60453;-71
2022/04/11 11:46:55;;;;;;;8.50;1.50;;;;;;;9.86;35.74;99990.38;104774;1274;74699;-67
2022/04/11 11:49:46;;;;;;;7.60;1.60;;;;;;;10.41;34.22;99986.27;104588;1275;68749;-69
2022/04/11 11:52:37;;;;;;;7.40;1.50;;;;;;;10.46;33.81;99984.83;104585;1274;72290;-72
2022/04/11 11:55:24;;;;;;;8.10;1.70;;;;;;;10.43;34.38;99990.14;105189;1274;60491;-74
2022/04/11 11:58:12;;;;;;;9.50;1.90;;;;;;;10.19;35.06;99999.39;107130;1274;60840;-68
2022/04/11 12:01:01;;;;;;;7.70;2.00;;;;;;;9.65;36.17;100000.69;105448;1274;74727;-70
2022/04/11 12:06:56;;;;;;;6.70;1.40;;;;;;;8.93;37.21;100003.95;104646;1274;72423;-71
2022/04/11 12:09:44;;;;;;;7.10;1.60;;;;;;;8.72;37.35;100006.00;104668;1274;60840;-67
2022/04/11 12:12:32;;;;;;;9.20;2.50;;;;;;;8.56;37.91;100003.20;104707;1274;60563;-70
2022/04/11 12:15:21;;;;;;;7.30;1.80;;;;;;;8.51;38.26;100000.02;104658;1274;74683;-71
2022/04/11 12:18:12;;;;;;;7.70;2.00;;;;;;;8.56;39.09;99995.66;104683;1274;66882;-68
2022/04/11 12:21:11;;;;;;;7.80;2.00;;;;;;;8.57;38.93;99995.05;104618;1274;71962;-69
2022/04/11 12:23:59;;;;;;;7.20;1.60;;;;;;;8.52;38.91;99994.66;104883;1277;60976;-68
2022/04/11 12:26:47;;;;;;;9.00;1.80;;;;;;;8.53;38.76;99994.92;104634;1277;60993;-68
2022/04/11 12:29:43;;;;;;;8.60;2.20;;;;;;;8.47;38.77;99990.20;104400;1277;75766;-67
2022/04/11 12:32:32;;;;;;;7.20;1.90;;;;;;;8.57;38.68;99987.71;104502;1277;67067;-68
2022/04/11 12:35:20;;;;;;;9.20;2.10;;;;;;;8.78;38.41;99989.84;104545;1277;73985;-67
2022/04/11 12:38:10;;;;;;;9.20;2.00;;;;;;;8.84;39.21;99998.71;104363;1277;60628;-68
2022/04/11 12:40:59;;;;;;;9.60;2.20;;;;;;;8.81;39.78;99990.80;104429;1277;60458;-67
2022/04/11 12:44:08;;;;;;;9.60;2.10;;;;;;;8.74;39.85;99995.91;104599;1277;75740;-67
2022/04/11 12:46:56;;;;;;;6.30;2.00;;;;;;;8.54;39.28;99995.35;104454;1277;68093;-69
2022/04/11 12:49:55;;;;;;;9.50;2.40;;;;;;;8.53;40.05;99988.95;104431;1277;73163;-68
2022/04/11 12:52:44;;;;;;;7.40;1.90;;;;;;;8.62;39.80;99987.39;104463;1277;60917;-67
2022/04/11 12:55:34;;;;;;;6.40;1.90;;;;;;;8.77;39.41;99982.98;104635;1278;60682;-68
2022/04/11 12:58:23;;;;;;;8.40;1.50;;;;;;;8.97;39.01;99979.65;104610;1277;74035;-68
2022/04/11 13:01:11;;;;;;;8.40;1.80;;;;;;;9.04;38.44;99974.87;104718;1277;67702;-68
2022/04/11 13:03:59;;;;;;;8.90;1.80;;;;;;;9.03;38.56;99968.23;104471;1277;73527;-70
2022/04/11 13:06:49;;;;;;;7.20;1.80;;;;;;;9.09;37.85;99970.95;104429;1277;60512;-71
2022/04/11 13:09:39;;;;;;;6.70;1.60;;;;;;;9.14;37.17;99972.73;104536;1277;60842;-67
2022/04/11 13:12:27;;;;;;;8.20;1.80;;;;;;;9.20;36.76;99973.70;104488;1277;75041;-66
2022/04/11 13:15:16;;;;;;;7.00;1.90;;;;;;;9.17;36.99;99974.61;104657;1278;66868;-69
2022/04/11 13:21:10;;;;;;;7.60;1.90;;;;;;;8.93;38.54;99987.48;104526;1278;60385;-70